Tuesday, January 16, 2018, 12:18 PM EST
Back to Local

KJHW, Jamestown, Chautauqua County/jamestown Airport

Location: Jamestown, NY, United States Lat: 42.15
Local Time: 12:18 PM EST (17:18 GMT) Lon: -79.267
Time Zone: US/Eastern Elev: 1722 ft

Show me the last for .
Show Decoded

2018-01-16 12:07 METAR KJHW 161707Z AUTO VRB03KT 9SM -SN FEW017 BKN028 OVC041 M04/M09 A3029 RMK
                 AO2 P0000 FZRANO =
2018-01-16 11:56 METAR KJHW 161656Z AUTO 14003KT 9SM -SN FEW015 SCT030 OVC041 M04/M09 A3029 RMK
                 AO2 SNE14B30 SLP292 P0000 T10441089 FZRANO =
2018-01-16 10:56 METAR KJHW 161556Z AUTO 18003KT 7SM -SN OVC039 M05/M08 A3032 RMK AO2 SNB15
                 SLP301 P0000 T10501083 FZRANO =
2018-01-16 09:56 METAR KJHW 161456Z AUTO 00000KT 10SM OVC037 M06/M07 A3031 RMK AO2 SLP299 60000
                 T10611072 51007 FZRANO =
2018-01-16 09:08 METAR KJHW 161408Z AUTO 00000KT 7SM OVC037 M07/M08 A3031 RMK AO2 FZRANO =
2018-01-16 08:56 METAR KJHW 161356Z AUTO 00000KT 1SM BR FEW011 OVC037 M08/M08 A3031 RMK AO2
                 SLP300 T10781083 FZRANO RVRNO =
2018-01-16 08:49 METAR KJHW 161349Z AUTO 00000KT 9SM SCT011 BKN039 M08/M09 A3031 RMK AO2 FZRANO =
2018-01-16 08:41 METAR KJHW 161341Z AUTO 00000KT 1 1/2SM BR SCT011 SCT024 BKN039 M08/M09 A3031
                 RMK AO2 FZRANO =
2018-01-16 07:56 METAR KJHW 161256Z AUTO 00000KT 9SM FEW020 M09/M11 A3030 RMK AO2 SNE48 SLP299
                 P0000 T10891106 FZRANO =
2018-01-16 07:36 METAR KJHW 161236Z AUTO 00000KT 9SM -SN FEW013 M08/M09 A3030 RMK AO2 P0000
                 FZRANO =
2018-01-16 07:03 METAR KJHW 161203Z AUTO 26004KT 9SM -SN OVC015 M07/M08 A3029 RMK AO2 P0000
                 FZRANO =
2018-01-16 06:56 METAR KJHW 161156Z AUTO 24005KT 9SM -SN FEW008 OVC013 M07/M08 A3029 RMK AO2
                 SLP292 P0002 60004 70004 T10721083 11072 21078 53013 FZRANO =
2018-01-16 06:36 METAR KJHW 161136Z AUTO 25003KT 6SM -SN BR OVC008 M07/M08 A3028 RMK AO2 CIG
                 007V011 P0001 FZRANO =
2018-01-16 05:56 METAR KJHW 161056Z AUTO 19004KT 8SM -SN BKN010 BKN026 OVC031 M08/M08 A3027 RMK
                 AO2 CIG 009V013 SLP286 P0000 T10781083 FZRANO =
2018-01-16 05:53 METAR KJHW 161053Z AUTO 19004KT 8SM -SN SCT012 OVC031 M08/M08 A3027 RMK AO2
                 P0000 FZRANO =
2018-01-16 04:56 METAR KJHW 160956Z AUTO 19004KT 9SM -SN BKN012 OVC023 M07/M08 A3026 RMK AO2
                 SLP283 P0000 T10721083 FZRANO TSNO =
2018-01-16 03:56 METAR KJHW 160856Z AUTO 18005KT 9SM -SN OVC014 M08/M08 A3025 RMK AO2 SLP278
                 P0001 60002 T10781083 51009 FZRANO =
2018-01-16 03:45 METAR KJHW 160845Z AUTO 18005KT 9SM -SN OVC014 M07/M08 A3025 RMK AO2 P0000
                 FZRANO =
2018-01-16 03:21 METAR KJHW 160821Z AUTO 19004KT 4SM -SN BR OVC019 M07/M08 A3025 RMK AO2 P0000
                 FZRANO =
2018-01-16 02:56 METAR KJHW 160756Z AUTO 19005KT 2SM -SN BR FEW014 OVC021 M07/M08 A3025 RMK AO2
                 VIS 1 1/2V3 SLP277 P0001 T10721083 FZRANO =
2018-01-16 02:40 METAR KJHW 160740Z AUTO 20005KT 2 1/2SM -SN BR FEW016 OVC021 M07/M08 A3025 RMK
                 AO2 VIS 2V4 P0001 FZRANO =
2018-01-16 02:16 METAR KJHW 160716Z AUTO 20005KT 1 3/4SM -SN BR BKN016 OVC023 M08/M08 A3024 RMK
                 AO2 P0001 FZRANO =
2018-01-16 01:56 METAR KJHW 160656Z AUTO 18005KT 7SM -SN BKN020 BKN027 OVC035 M08/M09 A3023 RMK
                 AO2 SLP273 P0000 T10781089 FZRANO =
2018-01-16 01:31 METAR KJHW 160631Z AUTO 19005KT 4SM -SN BR SCT015 BKN022 OVC036 M08/M09 A3023
                 RMK AO2 P0000 FZRANO =
2018-01-16 00:56 METAR KJHW 160556Z AUTO 18006KT 2 1/2SM -SN BR OVC015 M08/M09 A3022 RMK AO2
                 SLP271 P0000 60000 T10831089 11083 21089 56012 FZRANO =
2018-01-16 00:35 METAR KJHW 160535Z AUTO 18006KT 2 1/2SM -SN BR OVC018 M08/M09 A3022 RMK AO2
                 P0000 FZRANO =
2018-01-15 23:56 METAR KJHW 160456Z AUTO 18006KT 5SM -SN BR BKN025 OVC031 M08/M09 A3023 RMK AO2
                 SLP274 P0000 T10831094 410781156 FZRANO =
2018-01-15 22:56 METAR KJHW 160356Z AUTO 17008KT 5SM -SN BR SCT022 BKN028 OVC036 M09/M10 A3024
                 RMK AO2 SLP280 P0000 T10891100 FZRANO =
2018-01-15 22:15 METAR KJHW 160315Z AUTO 17007KT 8SM -SN FEW020 BKN028 OVC040 M09/M10 A3025 RMK
                 AO2 P0000 FZRANO =
2018-01-15 21:56 METAR KJHW 160256Z AUTO 18009KT 8SM -SN BKN040 OVC050 M09/M10 A3026 RMK AO2
                 SLP286 P0000 60000 T10891100 51001 FZRANO =
2018-01-15 20:56 METAR KJHW 160156Z AUTO 17011KT 5SM -SN BR BKN026 OVC036 M09/M10 A3025 RMK AO2
                 SLP286 P0000 T10891100 FZRANO =
2018-01-15 20:43 METAR KJHW 160143Z AUTO 17007KT 8SM -SN FEW012 BKN024 OVC036 M09/M10 A3025 RMK
                 AO2 P0000 FZRANO =
2018-01-15 20:36 METAR KJHW 160136Z AUTO 17008KT 6SM -SN BR FEW012 BKN030 OVC036 M09/M10 A3025
                 RMK AO2 P0000 FZRANO =
2018-01-15 19:56 METAR KJHW 160056Z AUTO 17008KT 5SM -SN BR FEW009 BKN016 OVC036 M09/M10 A3026
                 RMK AO2 SLP288 P0000 T10891100 FZRANO =
2018-01-15 19:39 METAR KJHW 160039Z AUTO 17007KT 4SM -SN BR OVC016 M09/M10 A3026 RMK AO2 P0000
                 FZRANO =
2018-01-15 19:16 METAR KJHW 160016Z AUTO 17009G15KT 2 1/2SM -SN BR FEW009 BKN016 OVC023 M08/M10
                 A3026 RMK AO2 VIS 1 3/4V3 P0000 FZRANO =
2018-01-15 18:56 METAR KJHW 152356Z AUTO 16009KT 4SM -SN BR SCT009 BKN016 OVC022 M08/M10 A3025
                 RMK AO2 SLP286 P0000 60000 T10831100 11078 21100 58001 FZRANO =
2018-01-15 18:54 METAR KJHW 152354Z AUTO 16006KT 4SM -SN BR SCT009 BKN016 OVC022 M08/M10 A3025
                 RMK AO2 P0000 FZRANO =
2018-01-15 17:56 METAR KJHW 152256Z AUTO 15008KT 4SM -SN BR FEW011 BKN029 OVC049 M08/M10 A3026
                 RMK AO2 SLP288 P0000 T10831100 FZRANO =
2018-01-15 17:54 METAR KJHW 152254Z AUTO 16009KT 4SM -SN BR FEW011 BKN029 OVC049 M08/M10 A3026
                 RMK AO2 P0000 FZRANO =
2018-01-15 17:11 METAR KJHW 152211Z AUTO 17011KT 5SM -SN BR SCT025 OVC035 M08/M11 A3026 RMK AO2
                 P0000 FZRANO =
2018-01-15 16:56 METAR KJHW 152156Z AUTO 16008KT 3SM -SN BR BKN025 OVC031 M08/M11 A3026 RMK AO2
                 SNB13 SLP288 P0000 T10831106 FZRANO TSNO =
2018-01-15 15:56 METAR KJHW 152056Z AUTO 18010KT 10SM BKN022 OVC070 M08/M12 A3026 RMK AO2 SLP287
                 60000 T10781117 55016 FZRANO =
2018-01-15 15:49 METAR KJHW 152049Z AUTO 18012KT 10SM BKN022 OVC070 M08/M12 A3026 RMK AO2 FZRANO
                 =
2018-01-15 14:56 METAR KJHW 151956Z AUTO 17009G14KT 10SM CLR M08/M12 A3025 RMK AO2 SNE41 SLP286
                 P0000 T10781122 FZRANO =
2018-01-15 13:49 METAR KJHW 151849Z AUTO 16009KT 8SM -SN SCT024 SCT031 OVC047 M09/M13 A3028 RMK
                 AO2 P0000 FZRANO =
2018-01-15 13:30 METAR KJHW 151830Z AUTO 16007KT 3SM -SN BKN024 BKN030 OVC035 M10/M13 A3028 RMK
                 AO2 P0000 FZRANO =
2018-01-15 12:56 METAR KJHW 151756Z AUTO 16007KT 120V190 4SM -SN FEW023 BKN030 OVC036 M10/M14
                 A3031 RMK AO2 SNB07 SLP306 P0000 60000 T11001139 11100 21156 58025 FZRANO =
2018-01-15 12:48 METAR KJHW 151748Z AUTO 16006KT 4SM -SN FEW023 OVC030 M10/M14 A3031 RMK AO2
                 SNB07 P0000 FZRANO =
2018-01-15 12:41 METAR KJHW 151741Z AUTO 16008KT 4SM -SN BKN027 OVC034 M10/M14 A3031 RMK AO2
                 SNB07 P0000 FZRANO =

Support USWX by starting your Amazon purchase here.